Time;durP1;ratioP1;P1;durP2;ratioP2;P2;SDS_P1;SDS_P2;PMS_P1;PMS_P2;Temp;Humidity;BMP_temperature;BMP_pressure;BME280_temperature;BME280_humidity;BME280_pressure;Samples;Min_cycle;Max_cycle;Signal;HPM_P1;HPM_P2
2024/03/31 00:01:07;;;;;;;14.45;7.68;;;;;;;10.34;60.66;100104.34;4949532;28;98045;-81
2024/03/31 00:03:35;;;;;;;14.07;7.70;;;;;;;10.33;60.92;100115.63;4956278;28;97829;-81
2024/03/31 00:06:01;;;;;;;14.73;8.02;;;;;;;10.32;61.08;100110.41;4954409;28;96912;-81
2024/03/31 00:08:27;;;;;;;14.95;7.38;;;;;;;10.33;61.12;100109.53;4948570;28;96816;-81
2024/03/31 00:11:00;;;;;;;13.32;7.63;;;;;;;10.33;61.09;100101.72;4952130;28;100703;-81
2024/03/31 00:13:26;;;;;;;16.80;8.95;;;;;;;10.34;61.06;100101.72;4961967;28;100568;-81
2024/03/31 00:15:51;;;;;;;16.00;8.48;;;;;;;10.34;61.07;100088.69;4950869;28;96872;-81
2024/03/31 00:18:17;;;;;;;13.95;8.05;;;;;;;10.35;61.27;100093.03;4949761;28;98133;-81
2024/03/31 00:20:42;;;;;;;14.48;8.32;;;;;;;10.36;61.16;100092.19;4949428;28;97765;-81
2024/03/31 00:23:07;;;;;;;19.33;11.23;;;;;;;10.39;61.33;100088.69;4954490;28;97498;-81
2024/03/31 00:25:33;;;;;;;16.42;9.43;;;;;;;10.40;61.59;100078.25;4948886;28;96868;-81
2024/03/31 00:27:59;;;;;;;19.48;10.07;;;;;;;10.45;61.68;100084.34;4948094;28;96845;-81
2024/03/31 00:30:24;;;;;;;20.40;10.85;;;;;;;10.48;62.16;100079.16;4941902;28;100517;-81
2024/03/31 00:32:50;;;;;;;22.95;12.52;;;;;;;10.54;62.27;100080.88;4968491;28;100091;-81
2024/03/31 00:35:15;;;;;;;20.35;11.98;;;;;;;10.62;62.34;100079.16;4953006;28;96954;-81
2024/03/31 00:37:40;;;;;;;23.30;12.05;;;;;;;10.70;62.38;100078.28;4946339;28;96945;-80
2024/03/31 00:40:07;;;;;;;24.45;12.80;;;;;;;10.76;62.67;100073.91;4934278;28;99740;-81
2024/03/31 00:42:32;;;;;;;26.98;12.73;;;;;;;10.84;62.46;100060.91;4932645;28;100183;-81
2024/03/31 00:44:58;;;;;;;22.73;12.73;;;;;;;10.92;62.36;100053.03;4957076;28;96804;-81
2024/03/31 00:47:23;;;;;;;26.88;12.57;;;;;;;10.97;62.44;100046.09;4953443;28;96965;-81
2024/03/31 00:49:49;;;;;;;22.20;12.43;;;;;;;11.02;62.30;100037.38;4956529;28;100168;-81
2024/03/31 00:52:14;;;;;;;21.95;12.07;;;;;;;11.08;62.37;100044.31;4936484;28;100271;-81
2024/03/31 00:54:43;;;;;;;25.05;12.02;;;;;;;11.11;62.21;100036.47;4951487;28;96887;-81
2024/03/31 00:57:09;;;;;;;23.85;12.98;;;;;;;11.15;62.15;100039.94;4952065;28;96895;-81
2024/03/31 00:59:35;;;;;;;24.33;12.55;;;;;;;11.18;62.23;100039.94;4948832;28;100423;-81
2024/03/31 01:02:00;;;;;;;21.67;11.48;;;;;;;11.22;62.22;100039.91;4941678;28;99434;-81
2024/03/31 01:04:26;;;;;;;24.50;11.90;;;;;;;11.28;62.26;100041.63;4937600;28;96844;-81
2024/03/31 01:06:51;;;;;;;22.08;12.43;;;;;;;11.33;62.21;100052.94;4942551;28;96905;-81
2024/03/31 01:09:18;;;;;;;25.58;12.88;;;;;;;11.37;62.10;100046.84;4949846;28;98090;-81
2024/03/31 01:11:43;;;;;;;23.40;12.10;;;;;;;11.39;61.94;100054.66;4952030;28;100615;-81
2024/03/31 01:14:10;;;;;;;24.48;13.23;;;;;;;11.42;61.97;100059.88;4947823;28;97069;-81
2024/03/31 01:16:37;;;;;;;27.15;12.80;;;;;;;11.45;62.17;100069.47;4934076;28;96928;-81
2024/03/31 01:19:03;;;;;;;23.95;12.05;;;;;;;11.47;61.99;100063.34;4953902;28;97723;-81
2024/03/31 01:21:32;;;;;;;23.17;12.13;;;;;;;11.49;62.23;100058.13;4950610;28;100565;-81
2024/03/31 01:23:59;;;;;;;24.95;11.88;;;;;;;11.51;62.00;100066.81;4931911;28;96967;-81
2024/03/31 01:26:25;;;;;;;26.45;12.98;;;;;;;11.51;62.18;100064.19;4951459;28;97310;-81
2024/03/31 01:28:50;;;;;;;25.88;11.77;;;;;;;11.53;62.18;100073.78;4949045;28;97950;-81
2024/03/31 01:31:16;;;;;;;23.98;11.48;;;;;;;11.55;62.02;100074.63;4938934;28;99745;-81
2024/03/31 01:33:43;;;;;;;23.50;11.43;;;;;;;11.57;62.25;100072.03;4950931;28;96834;-81
2024/03/31 01:36:09;;;;;;;24.00;12.13;;;;;;;11.60;62.17;100066.75;4950962;28;96884;-81
2024/03/31 01:38:34;;;;;;;25.33;11.93;;;;;;;11.60;62.28;100057.22;4954607;28;100404;-81
2024/03/31 01:40:59;;;;;;;24.60;11.93;;;;;;;11.63;62.14;100062.41;4936320;28;100448;-81
2024/03/31 01:43:25;;;;;;;25.85;11.27;;;;;;;11.66;62.32;100073.69;4932254;28;96923;-81
2024/03/31 01:45:51;;;;;;;25.88;12.55;;;;;;;11.67;61.91;100078.94;4945686;28;96824;-81
2024/03/31 01:48:17;;;;;;;23.83;11.48;;;;;;;11.70;62.38;100075.44;4946906;28;100706;-82
2024/03/31 01:50:43;;;;;;;22.08;10.43;;;;;;;11.72;62.23;100066.72;4948722;28;100227;-81
2024/03/31 01:53:08;;;;;;;23.80;11.90;;;;;;;11.73;62.45;100065.84;4946499;28;96807;-81
2024/03/31 01:55:34;;;;;;;22.25;10.82;;;;;;;11.75;62.52;100061.47;4938168;28;96826;-81
2024/03/31 01:58:00;;;;;;;21.00;9.77;;;;;;;11.77;62.28;100057.13;4953866;28;100277;-81
2024/03/31 02:00:27;;;;;;;20.48;9.35;;;;;;;11.79;62.24;100063.19;4954638;28;98266;-82
2024/03/31 02:02:52;;;;;;;19.00;9.38;;;;;;;11.80;62.32;100054.50;4949805;28;96897;-82
2024/03/31 02:05:17;;;;;;;18.40;8.95;;;;;;;11.84;62.25;100049.25;4938394;28;96927;-81
2024/03/31 02:07:43;;;;;;;17.33;8.93;;;;;;;11.87;62.26;100037.06;4956519;28;97695;-81
2024/03/31 02:10:10;;;;;;;19.40;8.82;;;;;;;11.91;62.05;100037.94;4953135;28;100100;-82
2024/03/31 02:12:36;;;;;;;17.42;8.75;;;;;;;11.92;61.97;100037.91;4941146;28;96941;-81
2024/03/31 02:15:02;;;;;;;16.95;9.27;;;;;;;11.94;62.19;100038.78;4950124;28;96998;-81
2024/03/31 02:17:27;;;;;;;17.08;8.15;;;;;;;11.96;62.03;100038.75;4944845;28;100701;-81
2024/03/31 02:19:53;;;;;;;18.40;9.15;;;;;;;11.98;61.90;100048.34;4957429;28;100503;-81
2024/03/31 02:22:18;;;;;;;20.85;9.48;;;;;;;11.99;61.82;100055.28;4953016;28;96912;-82
2024/03/31 02:24:44;;;;;;;17.52;8.80;;;;;;;12.01;61.64;100050.03;4956944;28;97046;-82
2024/03/31 02:27:10;;;;;;;17.30;8.23;;;;;;;12.00;61.59;100051.81;4955023;28;100720;-81
2024/03/31 02:29:36;;;;;;;16.38;8.13;;;;;;;12.02;61.79;100061.38;4941755;28;100207;-81
2024/03/31 02:32:01;;;;;;;14.82;7.82;;;;;;;12.03;61.68;100068.34;4954903;28;96844;-81
2024/03/31 02:34:27;;;;;;;16.05;7.45;;;;;;;12.04;61.52;100063.09;4952137;28;97098;-82
2024/03/31 02:36:53;;;;;;;15.68;8.00;;;;;;;12.05;61.21;100059.63;4952307;28;99236;-82
2024/03/31 02:39:18;;;;;;;16.45;8.13;;;;;;;12.05;61.60;100059.63;4937515;28;100410;-81
2024/03/31 02:41:43;;;;;;;17.60;8.05;;;;;;;12.05;61.41;100062.25;4941745;28;96783;-81
2024/03/31 02:44:09;;;;;;;15.40;7.90;;;;;;;12.07;61.38;100059.63;4942120;28;96915;-81
2024/03/31 02:46:34;;;;;;;16.58;7.78;;;;;;;12.07;61.48;100070.94;4936785;28;100426;-81
2024/03/31 02:49:00;;;;;;;14.95;7.30;;;;;;;12.05;61.19;100057.00;4943775;28;100327;-81
2024/03/31 02:51:26;;;;;;;16.88;7.50;;;;;;;12.05;61.49;100054.41;4953063;28;97278;-81
2024/03/31 02:53:51;;;;;;;14.80;6.85;;;;;;;12.04;61.33;100041.34;4956854;28;96854;-81
2024/03/31 02:56:17;;;;;;;12.10;6.53;;;;;;;12.03;61.23;100029.97;4954751;28;99900;-81
2024/03/31 02:58:43;;;;;;;14.20;6.63;;;;;;;12.02;61.15;100024.78;4953224;28;100829;-88
2024/03/31 03:01:08;;;;;;;9.65;5.43;;;;;;;11.99;60.99;100029.13;4938850;28;96830;-88
2024/03/31 03:03:34;;;;;;;10.77;5.70;;;;;;;11.99;61.57;100030.91;4932543;28;96878;-88
2024/03/31 03:06:00;;;;;;;12.20;6.22;;;;;;;11.99;61.28;100026.53;4954549;28;100061;-88
2024/03/31 03:08:26;;;;;;;11.50;5.63;;;;;;;11.99;61.03;100036.97;4940289;28;100107;-88
2024/03/31 03:10:57;;;;;;;11.85;6.20;;;;;;;11.99;61.37;100036.13;4954739;28;105814;-87
2024/03/31 03:13:24;;;;;;;11.52;5.90;;;;;;;12.02;61.30;100051.78;4958056;28;97315;-88
2024/03/31 03:15:50;;;;;;;11.15;5.75;;;;;;;12.04;61.13;100059.63;4939803;28;100248;-88
2024/03/31 03:18:18;;;;;;;13.90;6.43;;;;;;;12.03;61.14;100061.34;4951086;28;97796;-88
2024/03/31 03:20:48;;;;;;;11.32;5.70;;;;;;;12.04;61.13;100057.88;4941738;28;97258;-88
2024/03/31 03:23:13;;;;;;;12.43;6.50;;;;;;;12.04;61.06;100057.88;4960587;28;96761;-82
2024/03/31 03:25:39;;;;;;;13.70;5.97;;;;;;;12.03;61.09;100048.28;4958353;28;100120;-82
2024/03/31 03:28:05;;;;;;;11.48;6.00;;;;;;;12.04;61.52;100038.72;4951806;28;100568;-81
2024/03/31 03:30:31;;;;;;;11.30;6.25;;;;;;;12.05;61.23;100041.31;4950961;28;96912;-81
2024/03/31 03:32:57;;;;;;;12.35;5.72;;;;;;;12.04;61.32;100036.97;4957849;28;97250;-81
2024/03/31 03:35:23;;;;;;;12.25;6.47;;;;;;;12.06;61.18;100037.81;4959404;28;100785;-81
2024/03/31 03:37:49;;;;;;;12.52;6.22;;;;;;;12.07;61.19;100028.25;4953191;28;100039;-81
2024/03/31 03:40:15;;;;;;;11.80;5.68;;;;;;;12.08;61.09;100027.34;4946580;28;96898;-81
2024/03/31 03:42:40;;;;;;;13.90;5.88;;;;;;;12.08;61.23;100033.44;4937118;28;97036;-81
2024/03/31 03:45:09;;;;;;;10.25;5.38;;;;;;;12.09;61.06;100022.13;4944381;28;100543;-82
2024/03/31 03:47:35;;;;;;;10.43;5.22;;;;;;;12.08;60.95;100009.06;4955723;28;99970;-81
2024/03/31 03:50:00;;;;;;;10.88;5.38;;;;;;;12.08;61.17;100001.22;4938273;28;97337;-87
2024/03/31 03:52:26;;;;;;;11.85;5.28;;;;;;;12.08;61.00;99993.38;4943482;28;97154;-88
2024/03/31 03:54:51;;;;;;;10.45;5.43;;;;;;;12.06;60.97;99996.00;4953374;28;100428;-87
2024/03/31 03:57:18;;;;;;;9.65;4.95;;;;;;;12.06;61.09;100001.22;4941682;28;100215;-87
2024/03/31 03:59:43;;;;;;;11.32;4.90;;;;;;;12.05;61.01;99990.78;4955915;28;98010;-88
2024/03/31 04:02:08;;;;;;;9.90;4.80;;;;;;;12.05;61.16;99993.38;4938187;28;96900;-81
2024/03/31 04:04:35;;;;;;;10.43;4.55;;;;;;;12.03;61.06;99996.00;4954776;28;100530;-82
2024/03/31 04:07:01;;;;;;;9.20;4.75;;;;;;;12.02;61.09;99990.81;4949574;28;99339;-81
2024/03/31 04:09:28;;;;;;;10.77;5.30;;;;;;;12.01;60.96;99982.09;4951046;28;96918;-81
2024/03/31 04:11:54;;;;;;;10.73;5.30;;;;;;;12.00;61.25;99986.47;4927104;28;97027;-81
2024/03/31 04:14:19;;;;;;;9.82;4.72;;;;;;;11.99;61.08;99978.63;4943646;28;99915;-81
2024/03/31 04:16:45;;;;;;;9.57;4.75;;;;;;;11.96;61.05;99978.63;4957790;28;97878;-81
2024/03/31 04:19:10;;;;;;;9.38;4.50;;;;;;;11.95;61.19;99979.53;4934805;28;96885;-81
2024/03/31 04:21:36;;;;;;;9.68;5.10;;;;;;;11.94;61.20;99980.41;4941595;28;96904;-81
2024/03/31 04:24:02;;;;;;;11.40;5.43;;;;;;;11.92;61.04;99998.69;4952099;28;100131;-81
2024/03/31 04:26:28;;;;;;;10.93;5.07;;;;;;;11.91;61.11;99990.91;4950729;28;99861;-81
2024/03/31 04:28:54;;;;;;;8.55;4.68;;;;;;;11.89;61.10;99975.19;4950388;28;98169;-81
2024/03/31 04:31:20;;;;;;;9.77;4.93;;;;;;;11.89;61.12;99977.81;4954978;28;96903;-81
2024/03/31 04:33:45;;;;;;;9.10;5.15;;;;;;;11.87;61.16;99986.50;4949032;28;100824;-81
2024/03/31 04:36:12;;;;;;;9.50;4.70;;;;;;;11.84;61.04;99976.09;4941296;28;100232;-81
2024/03/31 04:38:37;;;;;;;10.15;5.53;;;;;;;11.82;61.13;99979.56;4948308;28;96999;-81
2024/03/31 04:41:03;;;;;;;11.63;5.28;;;;;;;11.82;61.19;99981.34;4943848;28;96856;-81
2024/03/31 04:43:30;;;;;;;9.20;4.97;;;;;;;11.82;61.19;99994.41;4958301;28;100006;-80
2024/03/31 04:45:59;;;;;;;9.23;5.03;;;;;;;11.82;61.20;99989.16;4954840;28;99360;-81
2024/03/31 04:48:25;;;;;;;10.07;4.70;;;;;;;11.81;61.22;99996.13;4939468;28;97108;-81
2024/03/31 04:50:51;;;;;;;12.75;4.82;;;;;;;11.81;61.13;99997.88;4938664;28;97298;-81
2024/03/31 04:53:17;;;;;;;10.63;5.45;;;;;;;11.80;61.11;99994.41;4946911;28;97655;-81
2024/03/31 04:55:42;;;;;;;11.18;5.22;;;;;;;11.79;61.17;100003.09;4952605;28;99831;-81
2024/03/31 04:58:08;;;;;;;10.65;4.85;;;;;;;11.79;61.25;100000.50;4935726;28;96798;-81
2024/03/31 05:00:33;;;;;;;11.95;5.13;;;;;;;11.78;61.45;100001.38;4938161;28;96887;-82
2024/03/31 05:02:59;;;;;;;9.48;5.60;;;;;;;11.79;61.28;99997.03;4955917;28;100195;-81
2024/03/31 05:05:24;;;;;;;11.68;5.80;;;;;;;11.78;61.36;99993.56;4951022;28;97720;-81
2024/03/31 05:07:50;;;;;;;10.13;5.57;;;;;;;11.78;61.09;99990.94;4934843;28;96849;-82
2024/03/31 05:10:15;;;;;;;11.23;5.35;;;;;;;11.78;61.27;99993.56;4949018;28;96785;-81
2024/03/31 05:12:41;;;;;;;10.77;5.50;;;;;;;11.77;61.31;99994.41;4952283;28;100400;-81
2024/03/31 05:15:06;;;;;;;12.32;6.07;;;;;;;11.77;61.29;99997.03;4947556;28;100432;-81
2024/03/31 05:17:32;;;;;;;11.02;5.75;;;;;;;11.76;61.34;99992.69;4956538;28;96956;-81
2024/03/31 05:19:58;;;;;;;11.82;5.53;;;;;;;11.78;61.49;99996.16;4938629;28;96935;-88
2024/03/31 05:22:25;;;;;;;11.13;6.00;;;;;;;11.79;61.39;99997.03;4947520;28;100482;-88
2024/03/31 05:24:50;;;;;;;11.07;5.53;;;;;;;11.77;61.29;99990.94;4952395;28;97491;-87
2024/03/31 05:27:16;;;;;;;12.77;5.55;;;;;;;11.76;61.62;99997.91;4933854;28;97041;-88
2024/03/31 05:29:42;;;;;;;12.13;5.10;;;;;;;11.77;61.53;99989.19;4953973;28;96953;-87
2024/03/31 05:32:07;;;;;;;11.52;5.78;;;;;;;11.78;61.31;99984.81;4936508;28;100497;-87
2024/03/31 05:35:00;;;;;;;9.80;5.20;;;;;;;11.79;61.53;99990.03;4948057;28;100161;-88
2024/03/31 05:37:26;;;;;;;12.43;5.32;;;;;;;11.80;61.46;99983.94;4954494;28;97095;-88
2024/03/31 05:39:51;;;;;;;12.57;5.60;;;;;;;11.80;61.56;99977.88;4955786;28;97273;-88
2024/03/31 05:42:17;;;;;;;12.18;5.78;;;;;;;11.82;61.52;99979.56;4950079;28;100425;-88
2024/03/31 05:44:43;;;;;;;12.65;6.22;;;;;;;11.83;61.47;99975.22;4954439;28;97431;-87
2024/03/31 05:47:09;;;;;;;12.02;6.15;;;;;;;11.82;61.50;99974.34;4938298;28;99363;-87
2024/03/31 05:49:34;;;;;;;13.98;6.03;;;;;;;11.82;61.56;99981.34;4954919;28;96837;-88
2024/03/31 05:52:00;;;;;;;12.45;6.32;;;;;;;11.82;61.53;99976.97;4949012;28;100590;-88
2024/03/31 05:54:25;;;;;;;11.57;6.15;;;;;;;11.84;61.56;99982.19;4955340;28;100034;-87
2024/03/31 05:56:51;;;;;;;10.80;6.25;;;;;;;11.86;61.71;99980.44;4957853;28;96775;-88
2024/03/31 05:59:17;;;;;;;12.55;6.00;;;;;;;11.88;61.73;99970.81;4951597;28;97293;-87
2024/03/31 06:01:43;;;;;;;13.32;6.63;;;;;;;11.90;61.59;99962.97;4931768;28;99453;-87
2024/03/31 06:04:08;;;;;;;11.02;5.30;;;;;;;11.91;61.51;99959.53;4946253;28;100613;-87
2024/03/31 06:06:34;;;;;;;11.43;5.75;;;;;;;11.90;61.53;99952.53;4947137;28;96908;-87
2024/03/31 06:08:59;;;;;;;13.07;6.65;;;;;;;11.89;61.59;99940.31;4949676;28;97904;-88
2024/03/31 06:11:25;;;;;;;13.10;6.95;;;;;;;11.87;61.56;99936.88;4945986;28;100327;-87
2024/03/31 06:13:51;;;;;;;12.15;5.82;;;;;;;11.88;61.55;99939.47;4942603;28;98374;-88
2024/03/31 06:16:16;;;;;;;12.85;6.75;;;;;;;11.89;61.73;99936.00;4942705;28;96857;-87
2024/03/31 06:18:42;;;;;;;10.57;5.53;;;;;;;11.91;61.71;99933.41;4955322;28;96991;-88
2024/03/31 06:21:08;;;;;;;13.95;6.75;;;;;;;11.91;61.56;99925.56;4944260;28;100387;-88
2024/03/31 06:23:35;;;;;;;11.57;6.28;;;;;;;11.92;61.70;99911.59;4944667;28;100536;-87
2024/03/31 06:26:02;;;;;;;15.18;6.95;;;;;;;11.92;61.55;99915.06;4952479;28;96858;-88
2024/03/31 06:28:29;;;;;;;13.02;6.53;;;;;;;11.91;61.66;99908.13;4952354;28;96981;-87
2024/03/31 06:30:55;;;;;;;13.02;6.93;;;;;;;11.90;61.74;99914.22;4939432;28;100229;-88
2024/03/31 06:33:21;;;;;;;13.82;6.47;;;;;;;11.91;61.83;99938.63;4950365;28;97505;-88
2024/03/31 06:35:48;;;;;;;13.52;7.20;;;;;;;11.92;61.86;99954.28;4938712;28;96890;-88
2024/03/31 06:38:13;;;;;;;14.98;6.80;;;;;;;11.92;61.89;99954.28;4955560;28;96866;-88
2024/03/31 06:40:39;;;;;;;13.90;7.35;;;;;;;11.95;61.95;99958.63;4959529;28;100624;-88
2024/03/31 06:43:07;;;;;;;14.18;7.78;;;;;;;11.98;62.16;99961.22;4940846;28;100238;-87
2024/03/31 06:45:33;;;;;;;15.80;7.50;;;;;;;12.01;62.04;99955.94;4958447;28;96958;-88
2024/03/31 06:47:58;;;;;;;16.75;7.78;;;;;;;12.04;62.17;99950.72;4949576;28;96956;-89
2024/03/31 06:50:24;;;;;;;15.20;8.07;;;;;;;12.08;61.91;99943.72;4950608;28;99958;-88
2024/03/31 06:52:50;;;;;;;16.42;7.93;;;;;;;12.10;62.16;99932.38;4954423;28;100494;-88
2024/03/31 06:55:16;;;;;;;14.60;7.65;;;;;;;12.14;61.98;99933.22;4949229;28;97275;-88
2024/03/31 06:57:42;;;;;;;15.52;7.60;;;;;;;12.14;61.97;99933.22;4953555;28;96939;-85
2024/03/31 07:00:09;;;;;;;13.98;7.70;;;;;;;12.16;62.26;99929.69;4945296;28;99561;-88
2024/03/31 07:02:35;;;;;;;16.70;7.68;;;;;;;12.17;62.24;99928.84;4962492;28;100063;-88
2024/03/31 07:05:01;;;;;;;16.98;8.82;;;;;;;12.20;62.32;99925.31;4942924;28;96903;-88
2024/03/31 07:07:26;;;;;;;15.98;8.32;;;;;;;12.22;62.37;99918.31;4939527;28;97055;-87
2024/03/31 07:09:52;;;;;;;15.23;8.32;;;;;;;12.26;62.27;99919.16;4937312;28;100155;-87
2024/03/31 07:12:17;;;;;;;17.35;9.77;;;;;;;12.29;62.37;99920.00;4953054;28;98512;-87
2024/03/31 07:14:43;;;;;;;18.13;9.38;;;;;;;12.33;62.35;99913.00;4955335;28;97105;-87
2024/03/31 07:17:08;;;;;;;18.00;9.10;;;;;;;12.37;62.46;99915.56;4953818;28;97117;-87
2024/03/31 07:19:34;;;;;;;17.20;9.73;;;;;;;12.41;62.32;99915.56;4953371;28;99888;-87
2024/03/31 07:21:59;;;;;;;18.40;9.52;;;;;;;12.45;62.60;99914.63;4953906;28;97787;-86
2024/03/31 07:24:24;;;;;;;22.77;9.02;;;;;;;12.48;62.48;99912.84;4954785;28;97103;-86
2024/03/31 07:26:50;;;;;;;17.23;9.65;;;;;;;12.51;62.45;99912.81;4946511;28;96830;-87
2024/03/31 07:29:16;;;;;;;18.58;9.27;;;;;;;12.55;62.38;99908.44;4933447;28;101466;-87
2024/03/31 07:31:41;;;;;;;17.50;9.20;;;;;;;12.59;62.51;99906.66;4929939;28;100156;-87
2024/03/31 07:34:07;;;;;;;19.60;10.23;;;;;;;12.62;62.39;99907.47;4950263;28;96864;-88
2024/03/31 07:36:32;;;;;;;17.67;9.63;;;;;;;12.66;62.43;99898.69;4945789;28;97081;-87
2024/03/31 07:38:58;;;;;;;24.13;11.15;;;;;;;12.71;62.53;99904.75;4946954;28;97705;-87
2024/03/31 07:41:23;;;;;;;20.42;10.80;;;;;;;12.74;62.80;99899.50;4948992;28;100637;-88
2024/03/31 07:43:49;;;;;;;20.95;10.50;;;;;;;12.82;62.98;99893.31;4949170;28;96717;-88
2024/03/31 07:46:14;;;;;;;23.05;11.43;;;;;;;12.89;62.89;99895.81;4957765;28;96822;-88
2024/03/31 07:48:40;;;;;;;20.60;11.73;;;;;;;12.97;62.98;99890.47;4933828;28;100446;-87
2024/03/31 07:51:05;;;;;;;21.25;11.88;;;;;;;13.04;62.95;99884.28;4945292;28;100691;-88
2024/03/31 07:53:31;;;;;;;22.58;11.30;;;;;;;13.12;62.93;99879.81;4949882;28;96760;-87
2024/03/31 07:56:01;;;;;;;19.70;10.75;;;;;;;13.20;62.86;99881.47;4949036;28;97004;-85
2024/03/31 07:58:27;;;;;;;22.33;11.52;;;;;;;13.27;62.44;99888.34;4952568;28;98216;-87
2024/03/31 08:00:54;;;;;;;23.50;12.18;;;;;;;13.30;62.35;99886.56;4949814;28;97864;-87
2024/03/31 08:03:20;;;;;;;23.45;11.75;;;;;;;13.33;62.45;99883.03;4951105;28;97204;-88
2024/03/31 08:05:46;;;;;;;25.52;13.15;;;;;;;13.36;62.31;99875.16;4952495;28;97756;-88
2024/03/31 08:08:12;;;;;;;24.27;13.15;;;;;;;13.40;62.12;99883.84;4946824;28;97731;-87
2024/03/31 08:10:38;;;;;;;26.92;15.30;;;;;;;13.44;62.05;99893.38;4948353;28;100520;-87
2024/03/31 08:13:04;;;;;;;25.85;13.50;;;;;;;13.47;62.45;99888.94;4948949;28;97022;-86
2024/03/31 08:15:29;;;;;;;28.63;15.73;;;;;;;13.53;62.29;99888.03;4934198;28;97113;-88
2024/03/31 08:17:55;;;;;;;27.90;16.13;;;;;;;13.58;62.36;99872.22;4940140;28;100606;-87
2024/03/31 08:20:20;;;;;;;30.67;15.93;;;;;;;13.63;62.23;99875.63;4946612;28;99876;-87
2024/03/31 08:22:46;;;;;;;30.38;16.15;;;;;;;13.67;62.42;99877.31;4951555;28;96876;-87
2024/03/31 08:25:14;;;;;;;31.50;17.05;;;;;;;13.73;62.27;99869.38;4950473;28;96919;-88
2024/03/31 08:27:39;;;;;;;27.70;15.77;;;;;;;13.79;62.39;99865.78;4946798;28;100437;-88
2024/03/31 08:30:05;;;;;;;30.40;15.75;;;;;;;13.84;62.32;99866.56;4954926;28;97519;-88
2024/03/31 08:32:31;;;;;;;29.27;16.25;;;;;;;13.90;62.18;99869.06;4949824;28;96849;-87
2024/03/31 08:34:56;;;;;;;30.70;16.48;;;;;;;13.97;62.69;99870.69;4948919;28;97011;-88
2024/03/31 08:37:21;;;;;;;30.63;16.98;;;;;;;14.07;62.66;99859.16;4959698;28;100157;-89
2024/03/31 08:39:47;;;;;;;27.95;16.80;;;;;;;14.22;63.02;99854.53;4944868;28;97826;-89
2024/03/31 08:42:29;;;;;;;28.52;15.90;;;;;;;14.37;62.57;99861.28;4949452;28;97383;-90
2024/03/31 08:44:57;;;;;;;26.20;15.60;;;;;;;14.46;62.00;99863.72;4947282;28;96829;-89
2024/03/31 08:47:29;;;;;;;26.95;15.25;;;;;;;14.50;61.42;99864.53;4927749;28;100366;-89
2024/03/31 08:49:58;;;;;;;27.40;16.05;;;;;;;14.53;61.31;99869.69;4951708;28;100219;-91
2024/03/31 08:52:25;;;;;;;30.83;16.63;;;;;;;14.53;61.13;99867.06;4952069;28;96765;-89
2024/03/31 08:54:53;;;;;;;29.48;16.98;;;;;;;14.50;60.94;99875.88;4941914;28;96998;-89
2024/03/31 08:57:19;;;;;;;29.25;17.70;;;;;;;14.51;60.85;99867.13;4945766;28;100249;-88
2024/03/31 08:59:44;;;;;;;29.08;16.67;;;;;;;14.49;61.07;99871.53;4953506;28;97908;-89
2024/03/31 09:02:15;;;;;;;29.25;16.20;;;;;;;14.50;61.25;99864.53;4957712;28;96832;-91
2024/03/31 09:04:41;;;;;;;29.90;16.77;;;;;;;14.54;61.21;99874.06;4946686;28;96933;-90
2024/03/31 09:07:06;;;;;;;31.83;18.13;;;;;;;14.56;61.39;99875.78;4940443;28;100345;-90
2024/03/31 09:09:32;;;;;;;33.08;18.77;;;;;;;14.59;61.52;99870.47;4942910;28;100089;-88
2024/03/31 09:11:58;;;;;;;30.83;18.63;;;;;;;14.67;61.63;99867.72;4950280;28;96750;-90
2024/03/31 09:14:23;;;;;;;33.30;19.35;;;;;;;14.76;61.89;99862.28;4955068;28;96889;-91
2024/03/31 09:16:49;;;;;;;35.13;19.83;;;;;;;14.88;61.87;99863.78;4955100;28;98907;-89
2024/03/31 09:19:14;;;;;;;34.92;20.52;;;;;;;15.03;62.26;99855.59;4948799;28;100798;-89
2024/03/31 09:21:46;;;;;;;37.70;21.13;;;;;;;15.21;62.16;99849.06;4944243;28;96823;-90
2024/03/31 09:24:13;;;;;;;36.22;20.45;;;;;;;15.37;61.72;99841.69;4942051;28;97957;-88
2024/03/31 09:26:39;;;;;;;37.75;21.48;;;;;;;15.53;61.86;99838.72;4970351;28;100344;-88
2024/03/31 09:29:05;;;;;;;33.95;19.85;;;;;;;15.74;62.41;99839.94;4935216;28;100641;-88
2024/03/31 09:31:30;;;;;;;38.30;21.63;;;;;;;16.01;62.67;99830.53;4930769;28;97015;-90
2024/03/31 09:33:56;;;;;;;36.45;21.52;;;;;;;16.28;61.88;99826.31;4955213;28;96758;-92
2024/03/31 09:36:21;;;;;;;34.38;19.88;;;;;;;16.47;61.21;99828.41;4954693;28;100465;-90
2024/03/31 09:38:47;;;;;;;32.20;20.58;;;;;;;16.62;60.69;99816.63;4946127;28;100113;-89
2024/03/31 09:41:12;;;;;;;33.13;20.23;;;;;;;16.70;59.92;99819.88;4946958;28;96959;-92
2024/03/31 09:44:00;;;;;;;31.90;19.77;;;;;;;16.74;59.26;99817.13;4956126;28;96882;-86
2024/03/31 09:46:26;;;;;;;34.50;19.92;;;;;;;16.77;59.58;99821.41;4945512;28;100432;-80
2024/03/31 09:49:07;;;;;;;30.65;19.50;;;;;;;16.86;59.44;99820.31;4940427;28;97481;-82
2024/03/31 09:51:41;;;;;;;32.70;18.90;;;;;;;16.88;59.07;99808.84;4942554;28;96993;-82
2024/03/31 09:54:12;;;;;;;27.33;17.75;;;;;;;16.89;58.56;99809.69;4947326;28;96840;-84
2024/03/31 09:56:48;;;;;;;30.77;18.83;;;;;;;16.89;58.84;99807.06;4954557;28;97673;-82
2024/03/31 09:59:15;;;;;;;28.55;18.45;;;;;;;16.97;59.09;99809.47;4935466;28;100516;-82
2024/03/31 10:01:44;;;;;;;28.65;17.30;;;;;;;17.05;58.87;99807.47;4950145;28;96926;-83
2024/03/31 10:04:19;;;;;;;29.77;17.33;;;;;;;17.16;58.76;99815.88;4947515;28;96858;-82
2024/03/31 10:06:45;;;;;;;29.73;17.02;;;;;;;17.28;59.28;99804.13;4963673;28;100690;-83
2024/03/31 10:09:11;;;;;;;29.83;17.13;;;;;;;17.43;59.40;99802.75;4948545;28;97873;-81
2024/03/31 10:11:38;;;;;;;23.83;16.70;;;;;;;17.67;59.47;99786.13;4945861;28;96941;-82
2024/03/31 10:14:05;;;;;;;25.13;15.00;;;;;;;18.00;59.86;99792.97;4948451;28;96831;-82
2024/03/31 10:16:35;;;;;;;22.25;14.05;;;;;;;18.36;58.74;99782.00;4933368;28;100661;-83
2024/03/31 10:19:02;;;;;;;20.10;13.25;;;;;;;18.67;57.67;99781.75;4937691;28;100114;-82
2024/03/31 10:21:29;;;;;;;21.42;12.40;;;;;;;18.94;56.88;99781.63;4952685;28;97162;-82
2024/03/31 10:23:55;;;;;;;27.35;13.25;;;;;;;19.13;57.11;99782.63;4947906;28;96975;-82
2024/03/31 10:26:22;;;;;;;19.90;11.93;;;;;;;19.41;56.73;99776.22;4950213;28;97639;-82
2024/03/31 10:28:50;;;;;;;18.63;10.85;;;;;;;19.69;55.93;99772.44;4928426;28;100156;-83
2024/03/31 10:31:15;;;;;;;20.25;11.15;;;;;;;19.95;55.21;99776.66;4965062;28;96944;-83
2024/03/31 10:33:41;;;;;;;17.17;8.98;;;;;;;20.22;55.24;99769.28;4946214;28;97144;-84
2024/03/31 10:36:08;;;;;;;17.30;9.35;;;;;;;20.47;54.47;99766.38;4950150;28;97832;-83
2024/03/31 10:38:34;;;;;;;18.55;9.20;;;;;;;20.60;53.77;99757.88;4945111;28;99976;-82
2024/03/31 10:41:02;;;;;;;15.25;8.85;;;;;;;20.69;53.01;99763.63;4931770;28;96793;-82
2024/03/31 10:43:28;;;;;;;14.52;8.15;;;;;;;20.82;52.60;99760.41;4935594;28;96949;-82
2024/03/31 10:45:53;;;;;;;17.20;8.23;;;;;;;20.99;52.06;99759.63;4929801;28;100555;-83
2024/03/31 10:48:19;;;;;;;15.15;7.53;;;;;;;21.10;51.81;99767.91;4952536;28;97384;-83
2024/03/31 10:50:45;;;;;;;14.68;7.07;;;;;;;21.22;51.92;99767.31;4948311;28;96813;-83
2024/03/31 10:53:11;;;;;;;16.90;7.80;;;;;;;21.39;51.26;99766.50;4957203;28;96814;-83
2024/03/31 10:55:42;;;;;;;15.70;8.65;;;;;;;21.58;50.74;99773.56;4951128;28;100603;-82
2024/03/31 10:58:14;;;;;;;15.65;8.30;;;;;;;21.68;50.11;99764.22;4948589;28;100515;-82
2024/03/31 11:00:42;;;;;;;13.82;7.72;;;;;;;21.64;49.51;99763.50;4953545;28;97015;-83
2024/03/31 11:03:08;;;;;;;14.25;7.60;;;;;;;21.53;49.37;99757.03;4951325;28;97056;-83
2024/03/31 11:05:34;;;;;;;13.90;7.57;;;;;;;21.44;50.08;99760.94;4945063;28;97994;-82
2024/03/31 11:08:02;;;;;;;12.27;7.78;;;;;;;21.42;49.67;99750.41;4949495;28;97586;-83
2024/03/31 11:10:30;;;;;;;14.32;7.88;;;;;;;21.32;49.64;99754.47;4952965;28;96904;-83
2024/03/31 11:12:55;;;;;;;13.05;7.35;;;;;;;21.34;50.17;99749.06;4953722;28;96966;-83